Time;durP1;ratioP1;P1;durP2;ratioP2;P2;SDS_P1;SDS_P2;PMS_P1;PMS_P2;Temp;Humidity;BMP_temperature;BMP_pressure;BME280_temperature;BME280_humidity;BME280_pressure;Samples;Min_cycle;Max_cycle;Signal;HPM_P1;HPM_P2
2023/02/07 00:02:55;;;;;;;11.18;5.88;;;20.60;57.40;;;;;;4976180;28;93138;-86
2023/02/07 00:05:21;;;;;;;8.90;5.45;;;20.60;57.60;;;;;;4975992;28;94302;-86
2023/02/07 00:07:47;;;;;;;9.52;5.80;;;20.50;57.40;;;;;;4976582;28;92578;-86
2023/02/07 00:10:12;;;;;;;10.45;5.35;;;20.50;57.90;;;;;;4976331;28;91962;-86
2023/02/07 00:12:38;;;;;;;9.13;5.07;;;20.50;58.20;;;;;;4990793;28;95119;-86
2023/02/07 00:15:05;;;;;;;9.00;4.72;;;20.50;57.90;;;;;;4976754;28;92850;-86
2023/02/07 00:17:33;;;;;;;9.13;4.78;;;20.50;57.90;;;;;;4975152;28;92552;-85
2023/02/07 00:20:16;;;;;;;8.25;5.20;;;20.50;57.70;;;;;;4976373;28;91437;-85
2023/02/07 00:22:42;;;;;;;8.60;5.05;;;20.50;57.90;;;;;;4976366;28;93645;-86
2023/02/07 00:25:08;;;;;;;7.40;4.72;;;20.50;57.70;;;;;;4976200;28;93720;-85
2023/02/07 00:27:33;;;;;;;8.93;5.55;;;20.40;57.70;;;;;;4975713;28;93398;-86
2023/02/07 00:29:59;;;;;;;9.13;5.57;;;20.40;57.60;;;;;;4976176;28;92292;-86
2023/02/07 00:32:24;;;;;;;12.93;5.32;;;20.40;57.60;;;;;;4974397;28;96543;-86
2023/02/07 00:34:50;;;;;;;10.35;5.30;;;20.40;57.80;;;;;;4975826;28;93328;-85
2023/02/07 00:37:16;;;;;;;8.93;5.13;;;20.40;57.80;;;;;;4976072;28;92361;-86
2023/02/07 00:39:41;;;;;;;10.07;5.60;;;20.30;57.90;;;;;;4976610;28;91991;-86
2023/02/07 00:42:07;;;;;;;10.38;6.10;;;20.30;58.00;;;;;;4975434;28;93733;-86
2023/02/07 00:44:33;;;;;;;8.68;5.63;;;20.20;57.80;;;;;;4975809;28;91859;-86
2023/02/07 00:47:06;;;;;;;8.80;5.25;;;20.20;57.90;;;;;;4976039;28;92111;-85
2023/02/07 00:49:32;;;;;;;8.77;5.00;;;20.20;57.80;;;;;;4976130;28;92596;-86
2023/02/07 00:58:45;;;;;;;10.63;5.22;;;20.20;58.00;;;;;;4975571;28;92355;-86
2023/02/07 01:01:10;;;;;;;10.00;5.43;;;20.20;57.90;;;;;;4975449;28;92051;-86
2023/02/07 01:03:36;;;;;;;7.38;4.45;;;20.20;57.90;;;;;;4975188;28;96607;-85
2023/02/07 01:06:02;;;;;;;8.57;5.03;;;20.10;58.10;;;;;;4975226;28;93977;-85
2023/02/07 01:08:27;;;;;;;7.10;4.40;;;20.10;57.90;;;;;;4975934;28;91932;-86
2023/02/07 01:10:53;;;;;;;10.55;5.47;;;20.10;58.10;;;;;;4975841;28;91676;-86
2023/02/07 01:13:19;;;;;;;9.45;5.25;;;20.10;58.00;;;;;;4975503;28;94588;-85
2023/02/07 01:15:46;;;;;;;8.40;4.47;;;20.10;58.10;;;;;;4975606;28;92817;-86
2023/02/07 01:18:12;;;;;;;11.55;5.50;;;20.10;58.30;;;;;;4975441;28;92991;-85
2023/02/07 01:20:38;;;;;;;7.70;4.63;;;20.00;58.30;;;;;;4975836;28;92138;-86
2023/02/07 01:23:05;;;;;;;9.68;5.15;;;20.00;58.20;;;;;;4975434;28;94219;-85
2023/02/07 01:25:32;;;;;;;8.02;5.32;;;20.00;57.90;;;;;;4974922;28;93791;-86
2023/02/07 01:30:26;;;;;;;9.20;4.75;;;20.00;58.20;;;;;;4990704;28;92552;-86
2023/02/07 01:32:51;;;;;;;8.73;4.93;;;20.00;58.10;;;;;;4974859;28;94226;-85
2023/02/07 01:35:17;;;;;;;8.43;4.80;;;19.90;58.00;;;;;;4975204;28;93249;-86
2023/02/07 01:37:43;;;;;;;8.60;4.70;;;19.90;57.90;;;;;;4975634;28;92233;-86
2023/02/07 01:40:10;;;;;;;9.02;4.90;;;19.90;58.00;;;;;;4975287;28;92249;-85
2023/02/07 01:42:36;;;;;;;8.40;4.38;;;19.90;58.20;;;;;;4974210;28;94293;-85
2023/02/07 01:45:28;;;;;;;7.45;4.10;;;19.90;57.90;;;;;;4974758;28;93259;-85
2023/02/07 01:47:58;;;;;;;6.15;4.65;;;19.90;57.90;;;;;;4973906;28;92735;-85
2023/02/07 01:50:24;;;;;;;;;;;19.90;57.90;;;;;;4975245;28;91976;-86
2023/02/07 01:52:50;;;;;;;8.45;4.38;;;19.80;57.70;;;;;;4976065;28;93267;-85
2023/02/07 01:55:25;;;;;;;7.80;4.60;;;19.80;57.80;;;;;;4974308;28;94114;-85
2023/02/07 01:57:53;;;;;;;6.80;4.22;;;19.80;57.70;;;;;;4975182;28;92258;-86
2023/02/07 02:00:19;;;;;;;7.47;4.35;;;19.80;57.80;;;;;;4975695;28;91580;-85
2023/02/07 02:02:45;;;;;;;7.22;4.82;;;19.80;57.90;;;;;;4974570;28;93134;-85
2023/02/07 02:05:11;;;;;;;8.30;4.78;;;19.80;58.00;;;;;;4974418;28;93971;-86
2023/02/07 02:07:38;;;;;;;6.88;4.13;;;19.80;57.90;;;;;;4989712;28;93243;-86
2023/02/07 02:10:15;;;;;;;7.35;4.45;;;19.80;57.70;;;;;;4974035;28;92639;-85
2023/02/07 02:16:38;;;;;;;9.40;5.03;;;19.70;57.70;;;;;;4978416;28;92645;-86
2023/02/07 02:19:16;;;;;;;8.07;5.00;;;19.70;57.90;;;;;;4978268;28;92599;-85
2023/02/07 02:22:13;;;;;;;7.20;4.40;;;19.70;57.60;;;;;;4977858;28;92667;-85
2023/02/07 02:25:04;;;;;;;7.95;4.57;;;19.70;57.50;;;;;;4978244;28;92010;-85
2023/02/07 02:34:52;;;;;;;6.82;4.45;;;19.70;57.70;;;;;;4978027;28;92598;-85
2023/02/07 02:37:30;;;;;;;6.93;4.72;;;19.70;57.80;;;;;;4976765;28;94906;-85
2023/02/07 02:40:25;;;;;;;9.07;4.65;;;19.60;57.60;;;;;;4975973;28;95607;-85
2023/02/07 02:56:58;;;;;;;5.13;3.55;;;19.50;57.60;;;;;;4978330;28;92460;-85
2023/02/07 02:59:34;;;;;;;7.60;4.30;;;19.60;57.50;;;;;;4977441;28;91515;-85
2023/02/07 03:02:08;;;;;;;7.80;4.25;;;19.50;57.60;;;;;;4977685;28;92657;-85
2023/02/07 03:05:01;;;;;;;6.32;3.85;;;19.50;57.60;;;;;;4977106;28;92725;-85
2023/02/07 03:11:15;;;;;;;5.38;4.10;;;19.50;57.50;;;;;;4948849;28;92613;-85
2023/02/07 03:13:50;;;;;;;7.13;4.88;;;19.40;57.50;;;;;;4977010;28;93366;-86
2023/02/07 03:16:23;;;;;;;5.63;4.00;;;19.50;57.40;;;;;;4976696;28;93904;-85
2023/02/07 03:19:18;;;;;;;5.95;3.90;;;19.40;57.40;;;;;;4977642;28;92433;-85
2023/02/07 03:31:56;;;;;;;5.55;3.55;;;19.40;57.30;;;;;;4975988;28;92391;-85
2023/02/07 03:34:28;;;;;;;4.78;3.47;;;19.40;57.30;;;;;;4976511;28;92432;-86
2023/02/07 03:37:09;;;;;;;6.53;3.78;;;19.40;57.30;;;;;;4976253;28;94833;-85
2023/02/07 03:39:48;;;;;;;7.90;4.35;;;19.30;57.20;;;;;;4977490;28;93536;-85
2023/02/07 03:42:28;;;;;;;6.45;4.20;;;19.30;57.10;;;;;;4977988;28;92406;-85
2023/02/07 03:44:55;;;;;;;5.18;3.33;;;19.30;57.20;;;;;;4977244;28;92630;-85
2023/02/07 03:47:21;;;;;;;5.35;3.88;;;19.30;57.10;;;;;;4975345;28;95022;-85
2023/02/07 03:50:07;;;;;;;5.78;4.15;;;19.30;57.00;;;;;;4976320;28;93766;-85
2023/02/07 03:52:32;;;;;;;5.55;3.75;;;19.30;57.00;;;;;;4977298;28;91893;-85
2023/02/07 03:54:58;;;;;;;5.32;3.53;;;19.30;57.00;;;;;;4977111;28;91305;-85
2023/02/07 03:57:24;;;;;;;5.40;3.55;;;19.30;57.30;;;;;;4976726;28;92684;-85
2023/02/07 03:59:49;;;;;;;5.85;3.60;;;19.30;57.30;;;;;;4976960;28;93430;-85
2023/02/07 04:21:00;;;;;;;6.55;3.95;;;19.20;56.90;;;;;;4947914;28;91965;-85
2023/02/07 04:23:26;;;;;;;4.75;3.55;;;19.10;56.80;;;;;;4975725;28;93875;-85
2023/02/07 04:25:51;;;;;;;5.15;3.88;;;19.20;57.70;;;;;;4976519;28;93352;-85
2023/02/07 04:28:17;;;;;;;4.80;3.45;;;19.10;56.80;;;;;;4975491;28;92018;-85
2023/02/07 04:30:43;;;;;;;5.70;3.83;;;19.10;56.80;;;;;;4976641;28;92463;-85
2023/02/07 04:33:24;;;;;;;5.80;4.03;;;19.10;56.70;;;;;;4974961;28;94055;-85
2023/02/07 04:35:57;;;;;;;5.38;3.45;;;19.10;56.70;;;;;;4975685;28;94239;-84
2023/02/07 04:38:23;;;;;;;5.22;3.58;;;19.10;56.90;;;;;;4974159;28;91969;-85
2023/02/07 04:40:49;;;;;;;6.43;3.92;;;19.10;56.90;;;;;;4974950;28;92620;-85
2023/02/07 04:43:15;;;;;;;6.32;3.60;;;19.10;56.90;;;;;;4974422;28;93363;-85
2023/02/07 04:45:40;;;;;;;5.57;3.50;;;19.10;56.80;;;;;;4974419;28;92529;-85
2023/02/07 04:48:06;;;;;;;5.80;3.40;;;19.10;56.80;;;;;;4973885;28;92538;-85
2023/02/07 04:50:32;;;;;;;6.20;3.78;;;19.10;56.80;;;;;;4974039;28;91281;-85
2023/02/07 04:52:57;;;;;;;6.97;3.80;;;19.10;56.80;;;;;;4974075;28;94199;-85
2023/02/07 04:55:23;;;;;;;5.72;3.70;;;19.10;56.60;;;;;;4975413;28;92911;-85
2023/02/07 04:57:49;;;;;;;6.00;3.72;;;19.10;56.80;;;;;;4975394;28;93376;-85
2023/02/07 05:00:15;;;;;;;5.43;3.53;;;19.00;56.70;;;;;;4974191;28;92426;-85
2023/02/07 05:06:08;;;;;;;5.55;3.20;;;19.00;56.70;;;;;;4976791;28;92011;-85
2023/02/07 05:08:35;;;;;;;5.82;3.50;;;19.00;56.80;;;;;;4975918;28;92382;-85
2023/02/07 05:11:03;;;;;;;4.43;2.95;;;19.00;56.80;;;;;;4975558;28;92448;-85
2023/02/07 05:13:29;;;;;;;5.03;3.80;;;19.00;56.80;;;;;;4990196;28;97504;-85
2023/02/07 05:15:55;;;;;;;4.30;3.13;;;19.00;56.80;;;;;;4976870;28;93769;-85
2023/02/07 05:25:47;;;;;;;5.30;3.50;;;18.90;56.90;;;;;;4965597;28;93895;-85
2023/02/07 05:28:13;;;;;;;6.45;3.65;;;18.90;56.80;;;;;;4973217;28;97389;-85
2023/02/07 05:30:39;;;;;;;4.38;3.20;;;18.90;56.80;;;;;;4975685;28;92669;-85
2023/02/07 05:33:05;;;;;;;5.65;3.38;;;18.90;56.80;;;;;;4974830;28;92414;-85
2023/02/07 05:35:35;;;;;;;5.53;3.40;;;18.90;56.90;;;;;;4975575;28;93662;-85
2023/02/07 05:38:04;;;;;;;5.20;3.30;;;18.90;56.80;;;;;;4974918;28;93069;-85
2023/02/07 05:40:31;;;;;;;5.13;3.50;;;18.80;56.80;;;;;;4975122;28;92613;-86
2023/02/07 05:42:57;;;;;;;4.57;3.47;;;18.90;56.70;;;;;;4974784;28;91486;-85
2023/02/07 05:45:22;;;;;;;5.80;3.53;;;18.90;56.70;;;;;;4974667;28;93501;-85
2023/02/07 05:47:48;;;;;;;5.68;3.88;;;18.90;56.60;;;;;;4975113;28;93217;-85
2023/02/07 05:50:14;;;;;;;4.50;2.90;;;18.80;56.80;;;;;;4973868;28;93100;-85
2023/02/07 05:52:39;;;;;;;5.30;3.47;;;18.90;56.80;;;;;;4975578;28;92432;-85
2023/02/07 05:55:06;;;;;;;5.30;3.38;;;18.80;56.60;;;;;;4974465;28;92901;-86
2023/02/07 05:57:31;;;;;;;5.32;3.50;;;18.80;56.80;;;;;;4974457;28;93549;-85
2023/02/07 05:59:57;;;;;;;4.95;3.40;;;18.80;56.70;;;;;;4975084;28;92526;-85
2023/02/07 06:02:23;;;;;;;5.40;3.55;;;18.80;56.70;;;;;;4975267;28;92092;-85
2023/02/07 06:04:48;;;;;;;4.10;2.95;;;18.80;56.70;;;;;;4975195;28;93035;-85
2023/02/07 06:07:14;;;;;;;5.07;3.63;;;18.80;56.60;;;;;;4974842;28;92978;-85
2023/02/07 06:09:40;;;;;;;4.60;3.42;;;18.70;56.40;;;;;;4975240;28;91925;-85
2023/02/07 06:12:05;;;;;;;5.35;3.70;;;18.70;56.30;;;;;;4973039;28;92404;-86
2023/02/07 06:14:31;;;;;;;4.88;3.03;;;18.70;56.30;;;;;;4973921;28;95432;-86
2023/02/07 06:20:19;;;;;;;4.95;3.00;;;18.70;56.30;;;;;;4974013;28;92384;-85
2023/02/07 06:22:44;;;;;;;4.68;3.13;;;18.70;56.30;;;;;;4975144;28;92763;-85
2023/02/07 06:25:12;;;;;;;4.22;3.05;;;18.70;56.30;;;;;;4974332;28;93730;-85
2023/02/07 06:27:39;;;;;;;4.75;3.22;;;18.70;56.20;;;;;;4974223;28;93382;-85
2023/02/07 06:30:06;;;;;;;4.78;3.10;;;18.70;56.20;;;;;;4974184;28;92385;-86
2023/02/07 06:32:34;;;;;;;5.32;3.33;;;18.70;56.20;;;;;;4976092;28;91918;-86
2023/02/07 06:38:22;;;;;;;5.32;3.58;;;18.70;56.20;;;;;;4973970;28;92330;-85
2023/02/07 06:40:47;;;;;;;4.28;3.30;;;18.70;56.30;;;;;;4972528;28;93401;-85
2023/02/07 06:43:13;;;;;;;4.43;3.00;;;18.60;56.20;;;;;;4974415;28;92551;-86
2023/02/07 06:45:39;;;;;;;4.55;2.90;;;18.60;56.20;;;;;;4973706;28;93887;-85
2023/02/07 06:48:15;;;;;;;4.97;3.17;;;18.60;56.30;;;;;;4974521;28;92811;-86
2023/02/07 06:50:41;;;;;;;4.68;3.10;;;18.60;56.30;;;;;;4974684;28;92524;-85
2023/02/07 06:53:07;;;;;;;6.57;3.38;;;18.60;56.00;;;;;;4974748;28;92518;-86
2023/02/07 06:55:38;;;;;;;4.03;3.15;;;18.60;56.30;;;;;;4973562;28;92982;-86
2023/02/07 06:58:05;;;;;;;5.75;3.45;;;18.60;56.00;;;;;;4975318;28;92523;-83
2023/02/07 07:17:23;;;;;;;12.70;3.35;;;18.80;54.70;;;;;;4977540;28;92434;-85
2023/02/07 07:19:49;;;;;;;11.82;3.95;;;18.80;53.70;;;;;;4977243;28;93814;-85
2023/02/07 07:22:14;;;;;;;10.15;3.60;;;18.90;52.40;;;;;;4976668;28;93026;-86
2023/02/07 07:24:40;;;;;;;9.20;4.20;;;19.00;52.00;;;;;;4978404;28;92642;-87
2023/02/07 07:27:06;;;;;;;8.85;4.07;;;19.00;53.20;;;;;;4977740;28;91544;-87
2023/02/07 07:39:38;;;;;;;13.32;4.25;;;19.60;53.60;;;;;;4975978;28;92583;-84
2023/02/07 07:42:03;;;;;;;8.43;3.35;;;19.80;53.30;;;;;;4976984;28;93041;-84
2023/02/07 07:44:29;;;;;;;14.13;4.70;;;19.90;53.40;;;;;;4976814;28;93261;-84
2023/02/07 07:46:55;;;;;;;11.55;4.55;;;19.80;53.50;;;;;;4976631;28;92210;-84
2023/02/07 07:49:22;;;;;;;9.93;3.55;;;19.90;53.60;;;;;;4975237;28;92531;-84
2023/02/07 07:51:48;;;;;;;10.80;4.47;;;19.90;53.50;;;;;;4992156;28;96983;-84
2023/02/07 07:54:17;;;;;;;10.45;3.88;;;20.00;53.40;;;;;;4977396;28;93150;-84
2023/02/07 07:56:42;;;;;;;9.32;3.83;;;20.00;53.40;;;;;;4977618;28;92242;-84
2023/02/07 07:59:08;;;;;;;10.63;4.18;;;19.80;53.60;;;;;;4977372;28;92394;-83
2023/02/07 08:01:34;;;;;;;10.05;4.22;;;19.80;53.90;;;;;;4976068;28;94484;-84
2023/02/07 08:03:59;;;;;;;7.32;3.85;;;19.70;54.10;;;;;;4977244;28;93670;-84
2023/02/07 08:06:25;;;;;;;8.10;3.65;;;19.70;54.30;;;;;;4977485;28;92499;-86
2023/02/07 08:09:01;;;;;;;7.32;3.22;;;19.70;54.40;;;;;;4975978;28;92328;-85
2023/02/07 08:11:27;;;;;;;9.80;3.95;;;19.70;54.60;;;;;;4975415;28;92746;-85
2023/02/07 08:13:53;;;;;;;10.27;4.18;;;19.70;54.60;;;;;;4975428;28;93275;-86
2023/02/07 08:16:19;;;;;;;10.98;3.70;;;19.70;54.50;;;;;;4976130;28;91939;-85
2023/02/07 08:29:32;;;;;;;7.00;3.25;;;20.00;54.00;;;;;;4962887;28;93035;-85
2023/02/07 08:31:58;;;;;;;6.70;3.60;;;20.00;53.90;;;;;;4975952;28;92591;-86
2023/02/07 08:34:27;;;;;;;6.55;3.10;;;20.00;54.10;;;;;;4975705;28;92390;-86
2023/02/07 08:36:53;;;;;;;7.65;3.25;;;20.00;53.90;;;;;;4990684;28;96006;-86
2023/02/07 08:39:19;;;;;;;5.82;2.85;;;20.00;54.00;;;;;;4975723;28;92359;-86
2023/02/07 08:41:45;;;;;;;7.95;3.75;;;20.00;54.20;;;;;;4976476;28;92509;-87
2023/02/07 08:44:11;;;;;;;16.48;5.18;;;19.90;54.20;;;;;;4975014;28;93142;-87
2023/02/07 08:46:37;;;;;;;12.45;4.35;;;19.90;52.90;;;;;;4974749;28;93333;-87
2023/02/07 08:49:02;;;;;;;8.82;4.88;;;19.90;53.40;;;;;;4975104;28;92286;-85
2023/02/07 08:51:28;;;;;;;18.60;5.63;;;19.90;53.90;;;;;;4971351;28;92487;-85
2023/02/07 08:53:54;;;;;;;24.33;6.55;;;19.90;53.40;;;;;;4974523;28;94533;-86
2023/02/07 08:56:19;;;;;;;25.67;6.57;;;19.80;53.00;;;;;;4970805;28;94420;-86
2023/02/07 08:58:47;;;;;;;21.42;6.70;;;19.80;53.20;;;;;;4974723;28;92016;-86
2023/02/07 09:01:17;;;;;;;21.20;6.53;;;19.70;53.60;;;;;;4975427;28;92472;-86
2023/02/07 09:03:43;;;;;;;21.17;7.20;;;19.70;53.80;;;;;;4976148;28;93137;-87
2023/02/07 09:06:27;;;;;;;19.33;6.95;;;19.70;53.60;;;;;;4973771;28;95079;-84
2023/02/07 09:08:53;;;;;;;15.10;5.93;;;19.90;54.00;;;;;;4991138;28;92374;-84
2023/02/07 09:11:18;;;;;;;16.20;6.85;;;20.00;53.50;;;;;;4976050;28;91216;-85
2023/02/07 09:13:48;;;;;;;13.80;5.35;;;20.00;52.80;;;;;;4975822;28;92278;-86
2023/02/07 09:16:14;;;;;;;16.70;6.00;;;20.10;53.30;;;;;;4975475;28;92995;-86
2023/02/07 09:25:24;;;;;;;15.88;5.90;;;20.00;54.10;;;;;;4976370;28;92240;-85
2023/02/07 09:27:50;;;;;;;16.48;5.75;;;20.00;54.20;;;;;;4975976;28;92612;-86
2023/02/07 09:30:16;;;;;;;13.93;5.57;;;20.00;54.00;;;;;;4975438;28;92336;-86
2023/02/07 09:32:42;;;;;;;25.33;7.40;;;20.10;54.20;;;;;;4975089;28;92661;-87
2023/02/07 09:35:08;;;;;;;22.42;7.13;;;20.10;55.00;;;;;;4990661;28;96765;-87
2023/02/07 09:37:34;;;;;;;19.90;6.53;;;20.00;55.20;;;;;;4975741;28;92464;-85
2023/02/07 09:40:00;;;;;;;13.07;5.70;;;20.00;54.80;;;;;;4975235;28;92439;-87
2023/02/07 09:42:29;;;;;;;16.05;5.38;;;20.10;54.80;;;;;;4974965;28;92562;-86
2023/02/07 09:44:59;;;;;;;13.37;5.60;;;20.10;52.30;;;;;;4974549;28;94527;-85
2023/02/07 09:47:35;;;;;;;;;;;;;;;;;;;;;
2023/02/07 09:50:07;;;;;;;16.73;5.45;;;19.90;53.30;;;;;;4975615;28;92430;-84
2023/02/07 09:52:37;;;;;;;12.45;5.10;;;20.00;53.50;;;;;;4975324;28;92328;-84
2023/02/07 09:55:04;;;;;;;12.90;5.93;;;20.00;53.40;;;;;;4975168;28;94241;-86
2023/02/07 09:57:45;;;;;;;16.15;6.07;;;20.10;53.90;;;;;;4974298;28;95317;-87
2023/02/07 10:01:01;;;;;;;17.80;6.20;;;20.10;53.70;;;;;;4976745;28;92622;-86
2023/02/07 10:03:28;;;;;;;14.48;5.90;;;20.10;54.20;;;;;;4975620;28;91387;-87
2023/02/07 10:06:11;;;;;;;19.10;6.75;;;20.00;54.20;;;;;;4975016;28;93205;-86
2023/02/07 10:08:37;;;;;;;12.18;5.20;;;20.00;54.30;;;;;;4974690;28;93507;-86
2023/02/07 10:11:12;;;;;;;13.95;5.70;;;20.00;54.50;;;;;;4976036;28;93404;-86
2023/02/07 10:14:22;;;;;;;16.15;5.70;;;20.00;54.60;;;;;;4975148;28;92465;-87
2023/02/07 10:27:07;;;;;;;14.10;5.88;;;20.10;54.40;;;;;;4972508;28;92671;-87
2023/02/07 10:29:44;;;;;;;14.23;5.60;;;20.10;54.40;;;;;;4971801;28;93669;-87
2023/02/07 10:32:19;;;;;;;13.73;5.63;;;20.10;54.50;;;;;;4972944;28;93366;-87
2023/02/07 10:34:46;;;;;;;12.95;5.95;;;20.10;54.20;;;;;;4972712;28;92398;-86
2023/02/07 10:37:36;;;;;;;9.27;5.22;;;20.10;54.00;;;;;;4974749;28;92657;-86
2023/02/07 10:40:23;;;;;;;15.88;5.43;;;20.10;53.70;;;;;;4975370;28;94740;-86
2023/02/07 10:43:19;;;;;;;15.45;5.07;;;20.10;54.30;;;;;;4974713;28;94397;-86
2023/02/07 10:45:45;;;;;;;9.60;4.63;;;20.00;54.50;;;;;;4976371;28;92665;-86
2023/02/07 10:48:15;;;;;;;14.52;5.55;;;20.00;54.50;;;;;;4976217;28;95489;-85
2023/02/07 10:50:40;;;;;;;;;;;20.00;54.50;;;;;;4976258;28;93770;-87
2023/02/07 10:53:06;;;;;;;15.68;5.07;;;20.10;54.50;;;;;;4979846;28;92827;-86
2023/02/07 10:55:45;;;;;;;12.27;5.43;;;20.30;54.50;;;;;;4976486;28;92384;-86
2023/02/07 10:58:36;;;;;;;14.45;4.55;;;20.40;54.10;;;;;;4977383;28;91349;-86
2023/02/07 11:01:02;;;;;;;11.52;4.88;;;20.40;54.30;;;;;;4977215;28;95817;-86
2023/02/07 11:03:30;;;;;;;12.50;4.95;;;20.40;54.70;;;;;;4967112;28;92795;-86
2023/02/07 11:06:06;;;;;;;13.05;5.88;;;20.30;55.00;;;;;;4976307;28;93508;-86
2023/02/07 11:08:34;;;;;;;10.93;4.88;;;20.20;55.20;;;;;;4977985;28;92378;-86
2023/02/07 11:11:31;;;;;;;12.52;5.60;;;20.20;55.50;;;;;;4977944;28;93896;-86
2023/02/07 11:14:02;;;;;;;15.02;5.07;;;20.10;55.60;;;;;;4975741;28;98030;-86
2023/02/07 11:20:18;;;;;;;18.20;5.03;;;20.10;56.10;;;;;;4977922;28;92139;-85
2023/02/07 11:22:43;;;;;;;11.55;5.10;;;20.10;56.10;;;;;;4977214;28;97684;-87
2023/02/07 11:25:10;;;;;;;10.77;4.80;;;20.10;56.50;;;;;;4977157;28;92485;-83
2023/02/07 11:27:38;;;;;;;12.27;5.10;;;20.30;56.10;;;;;;4977160;28;92160;-85
2023/02/07 11:30:13;;;;;;;12.93;4.68;;;20.40;55.80;;;;;;4977280;28;92015;-85
2023/02/07 11:32:39;;;;;;;11.48;4.63;;;20.40;55.80;;;;;;4976479;28;94664;-87
2023/02/07 11:35:08;;;;;;;10.73;4.65;;;20.50;55.80;;;;;;4978187;28;94880;-87
2023/02/07 11:44:24;;;;;;;9.98;4.28;;;20.80;55.60;;;;;;4978005;28;96742;-86
2023/02/07 11:46:51;;;;;;;18.63;4.72;;;20.80;55.80;;;;;;4976567;28;92290;-85
2023/02/07 11:49:29;;;;;;;14.57;4.60;;;20.80;55.80;;;;;;4977459;28;92461;-86
2023/02/07 11:52:01;;;;;;;13.35;4.43;;;20.80;55.70;;;;;;4976848;28;91584;-86
2023/02/07 11:54:31;;;;;;;7.78;4.07;;;20.80;55.80;;;;;;4976264;28;93696;-86
2023/02/07 11:57:12;;;;;;;11.15;4.68;;;20.80;55.90;;;;;;4976548;28;92835;-85
2023/02/07 11:59:47;;;;;;;12.80;4.50;;;20.70;55.80;;;;;;4974691;28;93204;-85
2023/02/07 12:02:22;;;;;;;9.98;4.25;;;20.70;55.70;;;;;;4976598;28;92320;-84
2023/02/07 12:04:49;;;;;;;15.15;4.65;;;20.60;55.80;;;;;;4975183;28;97786;-87
2023/02/07 12:07:34;;;;;;;9.73;4.20;;;20.60;55.60;;;;;;4974743;28;93294;-86
2023/02/07 12:10:04;;;;;;;12.55;4.82;;;20.50;55.90;;;;;;4975630;28;92487;-85
2023/02/07 12:13:09;;;;;;;7.45;3.78;;;20.50;55.80;;;;;;4975309;28;92304;-86
2023/02/07 12:15:41;;;;;;;10.82;4.40;;;20.50;56.10;;;;;;4975297;28;93819;-85
2023/02/07 12:18:22;;;;;;;8.85;3.70;;;20.50;56.20;;;;;;4975640;28;92872;-86
2023/02/07 12:20:56;;;;;;;13.18;4.20;;;20.50;56.20;;;;;;4975714;28;92403;-85
2023/02/07 12:23:24;;;;;;;9.45;3.58;;;20.50;56.00;;;;;;4972219;28;92456;-84
2023/02/07 12:25:55;;;;;;;8.23;3.80;;;20.50;55.90;;;;;;4974835;28;94518;-85
2023/02/07 12:28:38;;;;;;;13.50;4.50;;;20.60;55.70;;;;;;4974906;28;94207;-85
2023/02/07 12:31:31;;;;;;;10.32;4.68;;;20.70;55.90;;;;;;4990290;28;92648;-85
2023/02/07 12:34:08;;;;;;;7.85;4.05;;;20.60;55.90;;;;;;4974990;28;92428;-87
2023/02/07 12:36:43;;;;;;;7.80;3.80;;;20.60;55.80;;;;;;4975151;28;93678;-86
2023/02/07 12:39:23;;;;;;;7.07;3.30;;;20.60;55.90;;;;;;4973220;28;95092;-86
2023/02/07 12:42:14;;;;;;;9.10;3.88;;;20.60;56.20;;;;;;4990661;28;92015;-86
2023/02/07 12:44:46;;;;;;;8.93;3.63;;;20.50;56.10;;;;;;4973792;28;91354;-86
2023/02/07 12:47:54;;;;;;;7.57;4.15;;;20.50;56.20;;;;;;4973365;28;96268;-86
2023/02/07 12:50:46;;;;;;;10.15;4.03;;;20.50;56.50;;;;;;4962020;28;100532;-86
2023/02/07 12:53:40;;;;;;;9.77;3.97;;;20.50;56.80;;;;;;4974341;28;93550;-87
2023/02/07 12:56:25;;;;;;;6.10;3.38;;;20.50;56.40;;;;;;4973129;28;92299;-87
2023/02/07 12:59:06;;;;;;;9.52;3.45;;;20.50;56.60;;;;;;4973190;28;97684;-86
2023/02/07 13:01:45;;;;;;;10.68;3.95;;;20.50;56.60;;;;;;4974698;28;93437;-86
2023/02/07 13:04:16;;;;;;;11.35;3.80;;;20.50;56.80;;;;;;4974562;28;92034;-87
2023/02/07 13:07:04;;;;;;;8.68;3.33;;;20.50;56.60;;;;;;4975325;28;92167;-86
2023/02/07 13:09:38;;;;;;;10.50;3.45;;;20.60;56.80;;;;;;4973959;28;92959;-86
2023/02/07 13:12:18;;;;;;;12.93;4.32;;;20.50;56.00;;;;;;4975235;28;93439;-86
2023/02/07 13:15:13;;;;;;;12.25;3.55;;;20.60;55.70;;;;;;4974868;28;92502;-87
2023/02/07 13:18:09;;;;;;;9.30;3.40;;;20.60;55.60;;;;;;4973327;28;92836;-86
2023/02/07 13:20:44;;;;;;;8.20;3.60;;;20.60;55.60;;;;;;4974312;28;94496;-85
2023/02/07 13:23:13;;;;;;;11.70;4.15;;;20.60;55.40;;;;;;4975765;28;93721;-86
2023/02/07 13:25:42;;;;;;;12.23;3.90;;;20.60;55.40;;;;;;4974827;28;92548;-87
2023/02/07 13:28:19;;;;;;;8.55;3.63;;;20.60;55.40;;;;;;4974044;28;92297;-86
2023/02/07 13:30:48;;;;;;;11.65;3.05;;;20.50;55.20;;;;;;4974352;28;92717;-86
2023/02/07 13:33:40;;;;;;;18.83;3.95;;;20.50;55.50;;;;;;4976676;28;92459;-86
2023/02/07 13:36:18;;;;;;;9.23;4.22;;;20.60;55.30;;;;;;4950395;28;93144;-86
2023/02/07 13:39:00;;;;;;;13.43;4.25;;;20.60;55.30;;;;;;4952139;28;91973;-87
2023/02/07 13:41:56;;;;;;;5.88;3.70;;;20.60;55.20;;;;;;4941767;28;92645;-86
2023/02/07 13:44:29;;;;;;;8.93;4.10;;;20.60;55.30;;;;;;4950757;28;93267;-86
2023/02/07 13:50:46;;;;;;;9.07;3.70;;;20.60;54.90;;;;;;4951820;28;92468;-86
2023/02/07 13:53:30;;;;;;;11.82;4.03;;;20.60;55.00;;;;;;4952488;28;93200;-86
2023/02/07 13:56:07;;;;;;;11.00;3.75;;;20.70;55.10;;;;;;4952333;28;98078;-85
2023/02/07 14:08:27;;;;;;;9.60;4.13;;;20.90;54.80;;;;;;4952433;28;96294;-86
2023/02/07 14:11:29;;;;;;;9.00;3.50;;;20.90;54.60;;;;;;4937830;28;92426;-86
2023/02/07 14:14:12;;;;;;;7.30;3.30;;;20.90;54.30;;;;;;4987909;28;93619;-86
2023/02/07 14:16:48;;;;;;;7.22;3.85;;;21.10;54.40;;;;;;4977137;28;94823;-86
2023/02/07 14:19:16;;;;;;;9.77;3.33;;;21.10;54.30;;;;;;4978124;28;93692;-87
2023/02/07 14:22:16;;;;;;;8.85;3.80;;;21.10;54.20;;;;;;4991971;28;92170;-87
2023/02/07 14:24:57;;;;;;;13.43;5.18;;;21.10;53.90;;;;;;4977629;28;92642;-87
2023/02/07 14:27:36;;;;;;;8.00;3.80;;;20.90;52.40;;;;;;4977470;28;93408;-86
2023/02/07 14:30:02;;;;;;;11.45;4.40;;;21.00;53.10;;;;;;4976681;28;93318;-87
2023/02/07 14:33:05;;;;;;;8.23;3.22;;;21.10;53.40;;;;;;4969119;28;93582;-86
2023/02/07 14:35:33;;;;;;;8.23;3.33;;;21.10;53.70;;;;;;4977400;28;91837;-86
2023/02/07 14:38:02;;;;;;;7.60;3.90;;;21.00;53.70;;;;;;4976449;28;95012;-85
2023/02/07 14:40:42;;;;;;;8.30;4.28;;;21.00;53.80;;;;;;4977582;28;93055;-86
2023/02/07 14:43:18;;;;;;;7.20;3.70;;;21.00;53.70;;;;;;4976923;28;93470;-87
2023/02/07 14:45:50;;;;;;;13.45;4.30;;;21.00;52.80;;;;;;4977676;28;92664;-87
2023/02/07 14:48:42;;;;;;;16.23;5.15;;;20.90;52.40;;;;;;4975489;28;93691;-86
2023/02/07 14:51:17;;;;;;;14.02;4.95;;;20.90;51.20;;;;;;4976372;28;93428;-86
2023/02/07 14:53:53;;;;;;;15.73;6.63;;;20.80;51.30;;;;;;4977094;28;92195;-85
2023/02/07 14:57:00;;;;;;;18.40;7.00;;;20.80;51.70;;;;;;4976283;28;92354;-86
2023/02/07 14:59:54;;;;;;;16.88;6.53;;;20.80;52.00;;;;;;4972685;28;93712;-86
2023/02/07 15:02:42;;;;;;;13.63;6.15;;;20.80;51.40;;;;;;4973749;28;92624;-85
2023/02/07 15:05:27;;;;;;;12.27;6.10;;;20.80;51.10;;;;;;4974911;28;92044;-86
2023/02/07 15:08:01;;;;;;;12.98;5.97;;;20.80;50.70;;;;;;4973294;28;92433;-86
2023/02/07 15:10:30;;;;;;;13.30;5.53;;;20.80;50.70;;;;;;4972120;28;95039;-85
2023/02/07 15:12:56;;;;;;;15.85;5.75;;;20.90;49.80;;;;;;4972931;28;94358;-84
2023/02/07 15:15:29;;;;;;;16.25;6.38;;;21.00;50.20;;;;;;4973805;28;92898;-85
2023/02/07 15:18:00;;;;;;;18.08;5.03;;;21.00;50.50;;;;;;4972823;28;92065;-85
2023/02/07 15:20:33;;;;;;;13.68;6.10;;;21.00;51.60;;;;;;4972661;28;93586;-85
2023/02/07 15:23:02;;;;;;;11.63;5.47;;;21.00;52.00;;;;;;4973759;28;92902;-84
2023/02/07 15:25:29;;;;;;;12.85;5.07;;;20.90;52.50;;;;;;4973375;28;92372;-85
2023/02/07 15:28:00;;;;;;;10.70;4.80;;;21.00;52.90;;;;;;4973490;28;91681;-84
2023/02/07 15:30:26;;;;;;;10.52;5.10;;;21.00;53.00;;;;;;4972280;28;93622;-85
2023/02/07 15:32:51;;;;;;;11.75;5.07;;;21.00;53.20;;;;;;4973904;28;93950;-84
2023/02/07 15:35:20;;;;;;;12.75;4.65;;;21.00;53.40;;;;;;4973184;28;93550;-84
2023/02/07 15:37:47;;;;;;;16.13;5.03;;;21.00;53.70;;;;;;4977253;28;92874;-84
2023/02/07 15:40:22;;;;;;;10.45;4.78;;;21.00;53.80;;;;;;4975568;28;93722;-85
2023/02/07 15:42:57;;;;;;;18.77;5.22;;;21.00;53.80;;;;;;4974444;28;95619;-85
2023/02/07 15:45:26;;;;;;;11.40;4.43;;;20.90;54.00;;;;;;4975042;28;92764;-85
2023/02/07 15:48:02;;;;;;;11.38;4.45;;;21.00;52.20;;;;;;4975465;28;92268;-85
2023/02/07 15:50:32;;;;;;;12.63;5.20;;;21.00;52.40;;;;;;4975935;28;93297;-85
2023/02/07 15:53:02;;;;;;;;;;;21.00;53.20;;;;;;4975066;28;93742;-84
2023/02/07 15:55:44;;;;;;;14.23;4.65;;;21.10;53.30;;;;;;4976801;28;91969;-85